createdAt,value
2022-09-06T00:02:00.972Z,1.35
2022-09-06T00:04:28.838Z,1.20
2022-09-06T00:06:59.438Z,1.48
2022-09-06T00:09:28.635Z,1.33
2022-09-06T00:11:56.440Z,1.52
2022-09-06T00:14:24.218Z,1.20
2022-09-06T00:16:52.025Z,1.35
2022-09-06T00:19:19.857Z,1.33
2022-09-06T00:21:47.641Z,1.10
2022-09-06T00:24:15.476Z,1.15
2022-09-06T00:26:44.657Z,1.05
2022-09-06T00:29:13.150Z,1.40
2022-09-06T00:31:40.965Z,1.13
2022-09-06T00:34:08.750Z,1.23
2022-09-06T00:36:36.501Z,1.17
2022-09-06T00:39:05.161Z,1.13
2022-09-06T00:41:32.902Z,0.95
2022-09-06T00:44:02.128Z,1.25
2022-09-06T00:46:31.383Z,0.98
2022-09-06T00:49:01.947Z,2.20
2022-09-06T00:51:31.121Z,1.20
2022-09-06T00:53:59.085Z,1.38
2022-09-06T00:56:27.564Z,1.33
2022-09-06T00:58:55.834Z,0.90
2022-09-06T01:01:25.124Z,1.33
2022-09-06T01:03:53.140Z,1.02
2022-09-06T01:06:25.782Z,1.42
2022-09-06T01:08:58.804Z,1.30
2022-09-06T01:11:33.094Z,0.95
2022-09-06T01:16:35.194Z,1.13
2022-09-06T01:19:15.301Z,1.25
2022-09-06T01:21:46.969Z,1.30
2022-09-06T01:24:38.057Z,1.05
2022-09-06T01:27:21.811Z,1.17
2022-09-06T01:29:55.982Z,1.40
2022-09-06T01:32:28.220Z,1.30
2022-09-06T01:35:00.309Z,1.25
2022-09-06T01:37:31.432Z,1.40
2022-09-06T01:39:59.332Z,1.38
2022-09-06T01:42:28.672Z,1.30
2022-09-06T01:45:00.154Z,1.27
2022-09-06T01:47:32.539Z,1.30
2022-09-06T01:50:18.269Z,1.50
2022-09-06T01:52:52.376Z,2.35
2022-09-06T01:55:22.829Z,1.45
2022-09-06T01:57:56.591Z,1.60
2022-09-06T02:00:26.219Z,1.30
2022-09-06T02:03:01.050Z,1.20
2022-09-06T02:05:32.165Z,1.50
2022-09-06T02:08:02.128Z,1.63
2022-09-06T02:10:33.191Z,1.40
2022-09-06T02:13:02.256Z,1.60
2022-09-06T02:15:34.157Z,1.75
2022-09-06T02:18:02.696Z,1.65
2022-09-06T02:20:32.151Z,1.50
2022-09-06T02:23:03.341Z,1.67
2022-09-06T02:25:35.241Z,1.50
2022-09-06T02:28:03.417Z,1.88
2022-09-06T02:30:32.801Z,2.00
2022-09-06T02:33:03.190Z,1.55
2022-09-06T02:35:31.314Z,1.50
2022-09-06T02:37:59.371Z,1.80
2022-09-06T02:40:27.279Z,2.47
2022-09-06T02:42:55.087Z,2.15
2022-09-06T02:45:22.879Z,2.25
2022-09-06T02:47:52.257Z,1.88
2022-09-06T02:50:20.209Z,1.95
2022-09-06T02:52:48.349Z,4.32
2022-09-06T02:55:18.816Z,2.67
2022-09-06T02:57:46.674Z,2.22
2022-09-06T03:00:15.025Z,2.65
2022-09-06T03:02:42.901Z,2.20
2022-09-06T03:05:12.182Z,1.88
2022-09-06T03:07:39.945Z,2.58
2022-09-06T03:10:08.059Z,2.78
2022-09-06T03:12:35.823Z,2.75
2022-09-06T03:15:03.670Z,2.47
2022-09-06T03:17:31.554Z,2.47
2022-09-06T03:19:59.360Z,1.80
2022-09-06T03:22:28.505Z,2.20
2022-09-06T03:24:56.680Z,2.55
2022-09-06T03:27:24.598Z,2.83
2022-09-06T03:29:52.401Z,2.20
2022-09-06T03:32:25.172Z,4.80
2022-09-06T03:34:53.075Z,3.55
2022-09-06T03:37:21.022Z,3.13
2022-09-06T03:39:50.477Z,2.72
2022-09-06T03:42:18.411Z,2.78
2022-09-06T03:44:46.212Z,2.83
2022-09-06T03:49:55.644Z,2.70
2022-09-06T03:52:23.456Z,2.67
2022-09-06T03:54:52.671Z,2.85
2022-09-06T03:57:20.482Z,2.60
2022-09-06T03:59:48.441Z,2.35
2022-09-06T04:02:19.626Z,2.72
2022-09-06T04:04:55.580Z,2.08
2022-09-06T04:07:26.400Z,2.65
2022-09-06T04:09:55.601Z,2.03
2022-09-06T04:12:23.405Z,2.60
2022-09-06T04:14:51.451Z,2.83
2022-09-06T04:17:19.314Z,2.58
2022-09-06T04:19:47.080Z,2.25
2022-09-06T04:22:14.852Z,3.10
2022-09-06T04:24:45.331Z,2.88
2022-09-06T04:27:16.753Z,3.80
2022-09-06T04:29:44.629Z,2.92
2022-09-06T04:32:12.570Z,2.90
2022-09-06T04:34:40.520Z,3.42
2022-09-06T04:37:08.513Z,3.08
2022-09-06T04:39:36.267Z,2.97
2022-09-06T04:42:04.167Z,4.07
2022-09-06T04:44:33.446Z,4.43
2022-09-06T04:47:09.449Z,4.78
2022-09-06T04:49:37.473Z,3.72
2022-09-06T04:52:05.264Z,4.80
2022-09-06T04:54:33.083Z,4.30
2022-09-06T04:57:00.893Z,4.50
2022-09-06T04:59:28.627Z,4.35
2022-09-06T05:01:57.870Z,4.75
2022-09-06T05:04:26.249Z,5.22
2022-09-06T05:07:00.733Z,4.47
2022-09-06T05:09:28.586Z,5.65
2022-09-06T05:11:59.585Z,4.85
2022-09-06T05:14:28.034Z,4.28
2022-09-06T05:16:57.461Z,4.32
2022-09-06T05:19:25.331Z,4.65
2022-09-06T05:21:54.642Z,4.30
2022-09-06T05:24:22.429Z,4.53
2022-09-06T05:26:50.287Z,4.18
2022-09-06T05:29:18.058Z,4.75
2022-09-06T05:31:45.836Z,4.82
2022-09-06T05:34:15.432Z,4.32
2022-09-06T05:36:43.199Z,5.47
2022-09-06T05:39:10.933Z,4.22
2022-09-06T05:41:38.890Z,4.10
2022-09-06T05:44:06.667Z,3.90
2022-09-06T05:46:34.515Z,3.63
2022-09-06T05:49:07.833Z,3.70
2022-09-06T05:51:36.998Z,3.60
2022-09-06T05:54:07.969Z,3.63
2022-09-06T05:56:35.728Z,3.22
2022-09-06T05:59:04.563Z,3.20
2022-09-06T06:01:32.407Z,3.08
2022-09-06T06:04:00.869Z,4.80
2022-09-06T06:06:29.225Z,2.90
2022-09-06T06:08:58.675Z,3.10
2022-09-06T06:11:27.171Z,2.70
2022-09-06T06:13:55.165Z,2.70
2022-09-06T06:16:23.706Z,3.35
2022-09-06T06:18:52.761Z,2.83
2022-09-06T06:21:22.158Z,2.83
2022-09-06T06:23:54.432Z,2.90
2022-09-06T06:26:23.961Z,3.08
2022-09-06T06:28:52.006Z,2.67
2022-09-06T06:31:22.901Z,2.30
2022-09-06T06:33:50.985Z,2.47
2022-09-06T06:36:22.858Z,2.50
2022-09-06T06:38:51.727Z,2.17
2022-09-06T06:41:21.452Z,2.50
2022-09-06T06:43:52.713Z,2.53
2022-09-06T06:46:21.008Z,2.67
2022-09-06T06:48:54.527Z,2.83
2022-09-06T06:51:23.486Z,2.65
2022-09-06T06:53:51.737Z,2.10
2022-09-06T06:56:32.245Z,2.20
2022-09-06T06:59:02.392Z,2.28
2022-09-06T07:01:31.822Z,2.25
2022-09-06T07:04:00.183Z,2.20
2022-09-06T07:09:18.293Z,1.90
2022-09-06T07:11:46.310Z,2.55
2022-09-06T07:14:15.586Z,2.22
2022-09-06T07:16:44.005Z,3.20
2022-09-06T07:22:04.623Z,5.68
2022-09-06T07:24:37.045Z,3.20
2022-09-06T07:29:55.845Z,3.42
2022-09-06T07:32:23.984Z,3.30
2022-09-06T07:34:52.798Z,3.35
2022-09-06T07:37:20.863Z,4.30
2022-09-06T07:39:48.626Z,3.42
2022-09-06T07:42:17.429Z,3.17
2022-09-06T07:44:45.233Z,3.70
2022-09-06T07:55:34.539Z,3.40
2022-09-06T07:58:06.950Z,4.50
2022-09-06T08:00:35.082Z,2.97
2022-09-06T08:03:04.838Z,2.58
2022-09-06T08:11:11.506Z,4.28
2022-09-06T08:13:39.843Z,3.35
2022-09-06T08:16:08.435Z,3.00
2022-09-06T08:18:38.832Z,1.88
2022-09-06T08:21:12.047Z,2.83
2022-09-06T08:23:42.867Z,2.92
2022-09-06T08:26:13.080Z,2.67
2022-09-06T08:28:41.043Z,2.33
2022-09-06T08:31:11.346Z,2.30
2022-09-06T08:33:42.956Z,2.28
2022-09-06T08:36:14.087Z,2.50
2022-09-06T08:38:41.945Z,1.80
2022-09-06T08:41:13.617Z,1.42
2022-09-06T08:43:49.272Z,1.08
2022-09-06T08:46:17.672Z,1.38
2022-09-06T08:48:50.876Z,1.23
2022-09-06T08:51:39.806Z,1.15
2022-09-06T08:54:09.298Z,1.00
2022-09-06T08:56:39.759Z,1.15
2022-09-06T08:59:08.813Z,0.80
2022-09-06T09:01:48.075Z,1.33
2022-09-06T09:04:19.769Z,1.23
2022-09-06T09:06:50.935Z,1.50
2022-09-06T09:09:18.770Z,2.08
2022-09-06T09:11:48.718Z,3.55
2022-09-06T09:14:17.960Z,2.00
2022-09-06T09:16:45.856Z,2.55
2022-09-06T09:19:14.566Z,2.58
2022-09-06T09:21:43.827Z,3.28
2022-09-06T09:24:12.301Z,2.20
2022-09-06T09:26:43.500Z,1.90
2022-09-06T09:29:12.505Z,2.85
2022-09-06T09:31:41.496Z,3.17
2022-09-06T09:34:12.514Z,3.70
2022-09-06T09:36:40.659Z,4.38
2022-09-06T09:39:13.178Z,4.50
2022-09-06T09:41:44.015Z,5.38
2022-09-06T09:44:17.560Z,3.83
2022-09-06T09:46:45.481Z,3.25
2022-09-06T09:49:14.081Z,3.58
2022-09-06T09:51:43.326Z,3.33
2022-09-06T09:54:15.723Z,3.67
2022-09-06T09:56:45.801Z,4.25
2022-09-06T09:59:24.053Z,4.82
2022-09-06T10:01:54.042Z,4.63
2022-09-06T10:07:15.060Z,5.80
2022-09-06T10:09:47.044Z,6.78
2022-09-06T10:12:17.349Z,8.07
2022-09-06T10:14:49.125Z,9.70
2022-09-06T10:17:31.867Z,12.88
2022-09-06T10:20:01.690Z,13.40
2022-09-06T10:22:30.528Z,13.20
2022-09-06T10:25:11.832Z,13.50
2022-09-06T10:28:01.550Z,15.63
2022-09-06T10:30:37.185Z,16.77
2022-09-06T10:33:06.846Z,16.40
2022-09-06T10:35:38.221Z,18.13
2022-09-06T10:38:22.537Z,18.35
2022-09-06T10:40:55.876Z,19.15
2022-09-06T10:43:25.517Z,18.92
2022-09-06T10:45:58.119Z,18.67
2022-09-06T10:48:29.075Z,19.27
2022-09-06T10:50:59.082Z,22.25
2022-09-06T10:53:41.008Z,25.55
2022-09-06T10:56:14.717Z,22.90
2022-09-06T11:01:37.222Z,23.17
2022-09-06T11:04:12.854Z,24.65
2022-09-06T11:06:44.977Z,21.73
2022-09-06T11:09:20.249Z,21.40
2022-09-06T11:11:53.126Z,21.00
2022-09-06T11:14:21.689Z,17.98
2022-09-06T11:16:51.012Z,19.08
2022-09-06T11:19:22.707Z,19.25
2022-09-06T11:22:15.057Z,15.88
2022-09-06T11:24:49.221Z,24.08
2022-09-06T11:27:26.378Z,26.35
2022-09-06T11:29:56.591Z,29.50
2022-09-06T11:32:33.279Z,34.00
2022-09-06T11:35:02.602Z,31.38
2022-09-06T11:37:32.820Z,35.50
2022-09-06T11:43:12.717Z,38.17
2022-09-06T11:45:42.236Z,36.83
2022-09-06T11:48:34.346Z,31.67
2022-09-06T11:51:06.795Z,31.08
2022-09-06T11:53:36.453Z,30.50
2022-09-06T11:56:18.091Z,21.05
2022-09-06T11:58:52.196Z,22.13
2022-09-06T12:01:37.483Z,20.05
2022-09-06T12:04:07.755Z,18.83
2022-09-06T12:06:38.989Z,16.42
2022-09-06T12:09:22.224Z,14.57
2022-09-06T12:11:51.442Z,14.27
2022-09-06T12:14:31.161Z,14.82
2022-09-06T12:17:28.933Z,13.35
2022-09-06T12:19:59.610Z,14.35
2022-09-06T12:22:45.973Z,13.95
2022-09-06T12:25:20.251Z,12.93
2022-09-06T12:30:30.986Z,9.15
2022-09-06T12:32:59.447Z,8.50
2022-09-06T12:38:17.262Z,7.80
2022-09-06T12:40:46.592Z,9.50
2022-09-06T12:43:15.632Z,9.57
2022-09-06T12:45:45.432Z,9.80
2022-09-06T12:48:13.990Z,9.05
2022-09-06T12:50:41.803Z,10.95
2022-09-06T12:53:27.714Z,10.85
2022-09-06T12:56:04.158Z,9.80
2022-09-06T12:58:31.950Z,11.23
2022-09-06T13:01:06.286Z,11.35
2022-09-06T13:03:36.222Z,11.90
2022-09-06T13:06:06.222Z,14.35
2022-09-06T13:08:35.785Z,15.43
2022-09-06T13:11:04.964Z,14.63
2022-09-06T13:13:41.247Z,14.25
2022-09-06T13:16:10.367Z,15.13
2022-09-06T13:18:39.756Z,18.08
2022-09-06T13:21:08.837Z,19.70
2022-09-06T13:23:42.324Z,19.15
2022-09-06T13:26:10.335Z,19.45
2022-09-06T13:28:40.950Z,19.15
2022-09-06T13:31:14.431Z,24.10
2022-09-06T13:33:43.365Z,22.25
2022-09-06T13:36:23.515Z,20.45
2022-09-06T13:39:00.208Z,20.58
2022-09-06T13:41:41.274Z,18.08
2022-09-06T13:44:18.910Z,17.65
2022-09-06T13:46:48.147Z,17.38
2022-09-06T13:49:18.717Z,17.33
2022-09-06T13:51:46.470Z,14.02
2022-09-06T13:54:15.654Z,14.02
2022-09-06T13:56:44.765Z,14.40
2022-09-06T13:59:12.835Z,11.38
2022-09-06T14:01:41.511Z,11.07
2022-09-06T14:04:14.277Z,11.32
2022-09-06T14:06:45.959Z,12.35
2022-09-06T14:09:18.233Z,10.02
2022-09-06T14:11:48.190Z,9.88
2022-09-06T14:14:17.783Z,9.32
2022-09-06T14:16:46.296Z,8.88
2022-09-06T14:19:16.040Z,9.25
2022-09-06T14:21:43.893Z,7.90
2022-09-06T14:24:11.902Z,8.23
2022-09-06T14:26:40.170Z,8.60
2022-09-06T14:29:08.295Z,9.00
2022-09-06T14:31:36.097Z,8.43
2022-09-06T14:34:04.303Z,9.07
2022-09-06T14:36:34.482Z,8.93
2022-09-06T14:39:04.799Z,9.00
2022-09-06T14:41:32.894Z,7.88
2022-09-06T14:44:01.145Z,8.15
2022-09-06T14:46:29.868Z,8.18
2022-09-06T14:48:59.508Z,8.65
2022-09-06T14:51:30.325Z,8.10
2022-09-06T14:54:00.246Z,8.77
2022-09-06T14:56:28.074Z,8.23
2022-09-06T14:58:57.504Z,7.88
2022-09-06T15:01:26.365Z,8.30
2022-09-06T15:03:56.499Z,7.90
2022-09-06T15:06:24.943Z,9.07
2022-09-06T15:08:58.382Z,7.75
2022-09-06T15:13:56.352Z,8.55
2022-09-06T15:16:24.323Z,7.65
2022-09-06T15:18:52.018Z,7.13
2022-09-06T15:21:19.681Z,9.00
2022-09-06T15:23:47.626Z,7.50
2022-09-06T15:26:15.929Z,7.57
2022-09-06T15:28:44.398Z,8.05
2022-09-06T15:31:15.593Z,7.97
2022-09-06T15:33:43.477Z,8.65
2022-09-06T15:36:11.628Z,9.73
2022-09-06T15:38:41.360Z,10.40
2022-09-06T15:41:10.387Z,12.68
2022-09-06T15:43:41.176Z,8.52
2022-09-06T15:46:09.531Z,7.93
2022-09-06T15:48:43.679Z,10.48
2022-09-06T15:51:12.379Z,8.85
2022-09-06T15:53:40.757Z,7.65
2022-09-06T15:56:08.632Z,7.45
2022-09-06T15:58:36.479Z,6.68
2022-09-06T16:01:05.906Z,6.13
2022-09-06T16:03:36.021Z,5.63
2022-09-06T16:08:56.642Z,6.03
2022-09-06T16:11:24.446Z,7.05
2022-09-06T16:13:52.148Z,7.07
2022-09-06T16:16:20.200Z,6.20
2022-09-06T16:18:48.407Z,7.32
2022-09-06T16:21:19.066Z,8.65
2022-09-06T16:23:49.667Z,7.55
2022-09-06T16:26:21.467Z,6.72
2022-09-06T16:28:50.469Z,6.10
2022-09-06T16:31:18.711Z,6.50
2022-09-06T16:33:47.549Z,7.18
2022-09-06T16:36:16.056Z,5.97
2022-09-06T16:38:45.505Z,6.53
2022-09-06T16:41:16.639Z,6.15
2022-09-06T16:43:44.724Z,5.93
2022-09-06T16:46:15.105Z,7.68
2022-09-06T16:48:43.161Z,6.80
2022-09-06T16:51:12.237Z,6.32
2022-09-06T16:53:40.435Z,7.10
2022-09-06T16:56:10.016Z,6.72
2022-09-06T16:58:39.217Z,6.03
2022-09-06T17:01:10.573Z,6.13
2022-09-06T17:03:38.603Z,7.13
2022-09-06T17:06:06.904Z,7.15
2022-09-06T17:08:35.051Z,7.35
2022-09-06T17:11:03.249Z,6.40
2022-09-06T17:13:32.769Z,7.38
2022-09-06T17:16:21.901Z,6.53
2022-09-06T17:18:50.680Z,6.68
2022-09-06T17:21:18.488Z,7.65
2022-09-06T17:23:46.397Z,7.45
2022-09-06T17:26:23.347Z,7.18
2022-09-06T17:28:52.555Z,7.05
2022-09-06T17:31:25.145Z,6.82
2022-09-06T17:33:53.742Z,6.82
2022-09-06T17:36:23.707Z,7.75
2022-09-06T17:38:53.742Z,7.82
2022-09-06T17:41:24.305Z,6.78
2022-09-06T17:43:54.649Z,6.80
2022-09-06T17:46:26.454Z,7.70
2022-09-06T17:48:56.711Z,7.35
2022-09-06T17:51:24.837Z,7.07
2022-09-06T17:53:52.651Z,7.70
2022-09-06T17:56:22.267Z,7.82
2022-09-06T17:58:55.302Z,7.18
2022-09-06T18:01:26.146Z,7.72
2022-09-06T18:03:53.975Z,6.68
2022-09-06T18:06:23.604Z,6.53
2022-09-06T18:08:52.221Z,10.48
2022-09-06T18:11:22.588Z,8.32
2022-09-06T18:13:57.318Z,6.38
2022-09-06T18:16:25.471Z,7.43
2022-09-06T18:18:54.144Z,7.35
2022-09-06T18:21:22.830Z,7.45
2022-09-06T18:23:51.913Z,7.53
2022-09-06T18:26:19.800Z,8.13
2022-09-06T18:28:47.651Z,7.85
2022-09-06T18:31:17.762Z,8.93
2022-09-06T18:33:45.706Z,8.48
2022-09-06T18:36:17.622Z,9.18
2022-09-06T18:38:45.904Z,9.75
2022-09-06T18:41:37.418Z,8.93
2022-09-06T18:44:06.205Z,11.05
2022-09-06T18:46:36.332Z,9.38
2022-09-06T18:49:04.489Z,10.25
2022-09-06T18:51:32.855Z,9.63
2022-09-06T18:54:00.698Z,8.32
2022-09-06T18:56:28.805Z,8.60
2022-09-06T18:58:57.695Z,7.38
2022-09-06T19:01:26.253Z,9.57
2022-09-06T19:03:57.126Z,7.72
2022-09-06T19:06:25.523Z,7.72
2022-09-06T19:08:54.031Z,7.85
2022-09-06T19:11:22.971Z,8.15
2022-09-06T19:13:51.826Z,8.57
2022-09-06T19:16:20.024Z,7.85
2022-09-06T19:18:48.680Z,8.38
2022-09-06T19:21:22.546Z,9.38
2022-09-06T19:23:57.528Z,9.45
2022-09-06T19:26:26.914Z,8.80
2022-09-06T19:28:55.946Z,8.52
2022-09-06T19:31:24.246Z,9.38
2022-09-06T19:33:55.240Z,9.35
2022-09-06T19:36:25.923Z,8.38
2022-09-06T19:39:04.816Z,10.60
2022-09-06T19:41:35.119Z,9.50
2022-09-06T19:44:05.702Z,10.93
2022-09-06T19:46:40.119Z,11.02
2022-09-06T19:49:11.056Z,9.50
2022-09-06T19:51:40.430Z,11.32
2022-09-06T19:54:08.185Z,10.70
2022-09-06T19:56:36.381Z,10.90
2022-09-06T19:59:05.920Z,9.88
2022-09-06T20:01:34.674Z,10.07
2022-09-06T20:04:03.669Z,10.85
2022-09-06T20:06:31.720Z,10.38
2022-09-06T20:09:01.880Z,10.82
2022-09-06T20:11:30.646Z,12.98
2022-09-06T20:13:59.317Z,10.45
2022-09-06T20:16:27.981Z,11.32
2022-09-06T20:18:56.091Z,11.45
2022-09-06T20:21:23.822Z,10.38
2022-09-06T20:23:52.085Z,10.57
2022-09-06T20:26:23.794Z,12.63
2022-09-06T20:28:54.923Z,10.80
2022-09-06T20:31:23.268Z,11.13
2022-09-06T20:33:51.080Z,10.50
2022-09-06T20:36:19.261Z,11.20
2022-09-06T20:38:47.543Z,10.93
2022-09-06T20:41:16.390Z,11.00
2022-09-06T20:43:46.999Z,11.15
2022-09-06T20:46:16.312Z,12.15
2022-09-06T20:48:45.386Z,12.77
2022-09-06T20:51:15.071Z,11.50
2022-09-06T20:53:42.830Z,14.52
2022-09-06T20:56:12.054Z,13.38
2022-09-06T20:58:40.257Z,14.27
2022-09-06T21:01:10.231Z,13.82
2022-09-06T21:03:39.684Z,15.25
2022-09-06T21:06:07.715Z,14.70
2022-09-06T21:08:39.516Z,14.43
2022-09-06T21:11:10.427Z,14.52
2022-09-06T21:13:38.794Z,14.95
2022-09-06T21:16:07.246Z,14.27
2022-09-06T21:18:37.098Z,14.77
2022-09-06T21:21:06.066Z,13.82
2022-09-06T21:23:34.657Z,15.65
2022-09-06T21:26:03.410Z,14.65
2022-09-06T21:28:34.278Z,13.98
2022-09-06T21:31:03.003Z,16.63
2022-09-06T21:33:33.606Z,17.25
2022-09-06T21:36:06.806Z,17.77
2022-09-06T21:38:37.446Z,18.45
2022-09-06T21:41:08.736Z,18.80
2022-09-06T21:43:36.863Z,16.63
2022-09-06T21:46:05.302Z,18.05
2022-09-06T21:48:33.115Z,18.40
2022-09-06T21:51:00.833Z,17.30
2022-09-06T21:53:30.075Z,17.70
2022-09-06T21:56:01.907Z,17.20
2022-09-06T21:58:29.798Z,18.40
2022-09-06T22:00:58.683Z,19.05
2022-09-06T22:03:28.735Z,19.63
2022-09-06T22:05:56.496Z,18.88
2022-09-06T22:08:24.971Z,20.50
2022-09-06T22:10:54.415Z,19.52
2022-09-06T22:13:22.703Z,19.17
2022-09-06T22:15:53.073Z,17.70
2022-09-06T22:18:20.908Z,17.05
2022-09-06T22:20:49.345Z,18.88
2022-09-06T22:23:17.107Z,19.95
2022-09-06T22:25:44.930Z,19.25
2022-09-06T22:28:14.033Z,17.42
2022-09-06T22:30:43.482Z,19.90
2022-09-06T22:33:11.391Z,19.00
2022-09-06T22:35:39.220Z,17.83
2022-09-06T22:38:09.623Z,17.88
2022-09-06T22:40:37.323Z,18.23
2022-09-06T22:43:05.021Z,18.40
2022-09-06T22:45:34.213Z,18.80
2022-09-06T22:48:01.940Z,18.67
2022-09-06T22:50:30.524Z,17.63
2022-09-06T22:53:07.474Z,17.70
2022-09-06T22:55:35.837Z,18.75
2022-09-06T22:58:03.861Z,17.52
2022-09-06T23:00:31.773Z,18.13
2022-09-06T23:03:00.848Z,18.08
2022-09-06T23:05:28.528Z,17.33
2022-09-06T23:07:57.702Z,18.48
2022-09-06T23:10:25.430Z,19.15
2022-09-06T23:12:53.331Z,19.65
2022-09-06T23:15:22.196Z,17.48
2022-09-06T23:17:50.124Z,19.52
2022-09-06T23:20:19.401Z,20.20
2022-09-06T23:22:48.460Z,18.05
2022-09-06T23:25:16.379Z,18.13
2022-09-06T23:27:44.190Z,18.67
2022-09-06T23:30:12.282Z,17.58
2022-09-06T23:32:40.038Z,17.65
2022-09-06T23:35:08.090Z,18.73
2022-09-06T23:37:37.154Z,20.55
2022-09-06T23:40:09.116Z,18.48
2022-09-06T23:42:37.140Z,18.13
2022-09-06T23:45:06.052Z,17.77
2022-09-06T23:47:33.841Z,21.25
2022-09-06T23:50:02.235Z,19.88
2022-09-06T23:52:30.245Z,19.50
2022-09-06T23:54:59.768Z,19.02
2022-09-06T23:57:27.494Z,20.02
2022-09-06T23:59:55.177Z,20.92
